Time;durP1;ratioP1;P1;durP2;ratioP2;P2;SDS_P1;SDS_P2;PMS_P1;PMS_P2;Temp;Humidity;BMP_temperature;BMP_pressure;BME280_temperature;BME280_humidity;BME280_pressure;Samples;Min_cycle;Max_cycle;Signal;HPM_P1;HPM_P2
2022/09/05 00:01:53;;;;;;;9.80;9.40;;;;;;;15.61;100.00;101543.81;5088287;28;20051;-64
2022/09/05 00:04:25;;;;;;;9.70;9.30;;;;;;;15.46;100.00;101542.94;5064290;28;20028;-64
2022/09/05 00:07:12;;;;;;;9.73;9.32;;;;;;;15.34;100.00;101521.16;5071002;28;20443;-63
2022/09/05 00:09:57;;;;;;;10.20;9.70;;;;;;;15.49;100.00;101531.88;5080799;28;20419;-64
2022/09/05 00:12:24;;;;;;;10.30;9.80;;;;;;;15.51;100.00;101534.38;5089912;28;20479;-64
2022/09/05 00:14:52;;;;;;;10.45;9.95;;;;;;;15.46;100.00;101529.56;5089129;28;20078;-63
2022/09/05 00:17:44;;;;;;;9.80;9.40;;;;;;;15.25;100.00;101532.94;5075583;28;20030;-64
2022/09/05 00:20:30;;;;;;;9.63;9.23;;;;;;;15.32;100.00;101530.38;5031347;28;20495;-63
2022/09/05 00:23:14;;;;;;;9.68;9.27;;;;;;;15.41;100.00;101532.78;5083605;28;20134;-64
2022/09/05 00:25:48;;;;;;;10.00;9.50;;;;;;;15.33;100.00;101530.19;5089173;28;20494;-64
2022/09/05 00:28:31;;;;;;;9.82;9.43;;;;;;;15.24;100.00;101538.47;5087070;28;20031;-64
2022/09/05 00:31:29;;;;;;;9.93;9.48;;;;;;;15.20;100.00;101543.34;5075686;28;20120;-64
2022/09/05 00:34:12;;;;;;;10.55;10.05;;;;;;;15.33;100.00;101548.91;5072204;28;20032;-63
2022/09/05 00:36:44;;;;;;;9.80;9.40;;;;;;;15.27;100.00;101540.78;5074460;28;20043;-64
2022/09/05 00:39:39;;;;;;;9.85;9.45;;;;;;;15.23;100.00;101532.28;5074722;28;20052;-63
2022/09/05 00:42:14;;;;;;;9.70;9.30;;;;;;;15.18;100.00;101535.50;5074349;28;20043;-64
2022/09/05 00:44:54;;;;;;;9.70;9.30;;;;;;;15.17;100.00;101535.69;5081430;28;20021;-64
2022/09/05 00:47:45;;;;;;;9.93;9.48;;;;;;;15.11;100.00;101529.22;5088308;28;20552;-64
2022/09/05 00:50:21;;;;;;;9.93;9.52;;;;;;;15.17;100.00;101531.16;5051442;28;20068;-63
2022/09/05 00:53:01;;;;;;;9.57;9.18;;;;;;;15.08;100.00;101526.09;5054747;28;20595;-64
2022/09/05 00:55:55;;;;;;;10.18;9.68;;;;;;;15.00;100.00;101524.31;5054341;28;20032;-64
2022/09/05 00:58:24;;;;;;;9.63;9.23;;;;;;;15.01;100.00;101527.81;5000116;28;20529;-63
2022/09/05 01:00:57;;;;;;;9.75;9.35;;;;;;;14.95;100.00;101529.34;5046688;28;20032;-64
2022/09/05 01:03:23;;;;;;;9.98;9.52;;;;;;;14.90;100.00;101534.38;5054006;28;20047;-64
2022/09/05 01:06:26;;;;;;;10.18;9.68;;;;;;;14.90;100.00;101529.88;5053704;28;20033;-64
2022/09/05 01:09:06;;;;;;;10.07;9.57;;;;;;;14.94;100.00;101541.06;5053958;28;20436;-64
2022/09/05 01:12:06;;;;;;;10.02;9.52;;;;;;;14.78;100.00;101535.84;5044700;28;20033;-63
2022/09/05 01:15:00;;;;;;;9.68;9.27;;;;;;;14.77;100.00;101534.16;5060713;28;20099;-64
2022/09/05 01:18:19;;;;;;;9.85;9.45;;;;;;;14.76;100.00;101537.81;5054034;28;20049;-64
2022/09/05 01:21:04;;;;;;;9.77;9.38;;;;;;;14.76;100.00;101537.81;5011905;28;20033;-64
2022/09/05 01:23:38;;;;;;;9.80;9.40;;;;;;;14.69;100.00;101535.06;5049558;28;20029;-63
2022/09/05 01:26:27;;;;;;;10.10;9.60;;;;;;;14.61;100.00;101545.75;5059762;28;20044;-64
2022/09/05 01:29:02;;;;;;;9.70;9.30;;;;;;;14.51;100.00;101543.31;5073748;28;20499;-64
2022/09/05 01:31:43;;;;;;;;;;;;;;;14.68;100.00;101543.22;5060719;28;20444;-63
2022/09/05 01:34:43;;;;;;;9.70;9.30;;;;;;;14.67;100.00;101552.25;5052791;28;20240;-64
2022/09/05 01:37:22;;;;;;;10.10;9.60;;;;;;;14.60;100.00;101547.59;5064559;28;20047;-64
2022/09/05 01:40:06;;;;;;;9.90;9.50;;;;;;;14.34;100.00;101549.75;5053152;28;20013;-63
2022/09/05 01:42:41;;;;;;;10.10;9.60;;;;;;;14.32;100.00;101547.25;5042571;28;20024;-63
2022/09/05 01:45:19;;;;;;;9.80;9.40;;;;;;;14.26;100.00;101550.59;5070189;28;20039;-64
2022/09/05 01:48:03;;;;;;;10.10;9.60;;;;;;;14.44;100.00;101557.53;5062190;28;20433;-64
2022/09/05 01:51:16;;;;;;;9.80;9.40;;;;;;;14.34;100.00;101557.75;5060320;28;20131;-64
2022/09/05 01:53:49;;;;;;;9.85;9.40;;;;;;;14.27;100.00;101559.44;5011170;28;20119;-64
2022/09/05 01:56:33;;;;;;;10.10;9.60;;;;;;;14.17;100.00;101556.13;5013485;28;20034;-63
2022/09/05 01:59:28;;;;;;;9.80;9.40;;;;;;;14.20;100.00;101545.13;5055280;28;20033;-64
2022/09/05 02:02:05;;;;;;;9.95;9.50;;;;;;;13.98;100.00;101549.38;5069019;28;20045;-64
2022/09/05 02:04:40;;;;;;;9.73;9.32;;;;;;;13.87;100.00;101549.72;5085700;28;20063;-64
2022/09/05 02:07:29;;;;;;;9.88;9.48;;;;;;;13.86;100.00;101548.06;5071644;28;20115;-64
2022/09/05 02:10:33;;;;;;;9.80;9.40;;;;;;;13.69;100.00;101547.28;5072723;28;20099;-64
2022/09/05 02:13:46;;;;;;;10.18;9.68;;;;;;;13.60;100.00;101546.47;5065832;28;20106;-64
2022/09/05 02:16:24;;;;;;;10.32;9.82;;;;;;;13.75;100.00;101547.44;5010051;28;20033;-64
2022/09/05 02:18:59;;;;;;;10.05;9.55;;;;;;;13.77;100.00;101541.94;5074049;28;20028;-64
2022/09/05 02:21:38;;;;;;;10.45;9.95;;;;;;;13.79;100.00;101547.94;5072467;28;20021;-64
2022/09/05 02:24:20;;;;;;;10.25;9.75;;;;;;;13.70;100.00;101543.63;5081584;28;20024;-65
2022/09/05 02:27:04;;;;;;;10.23;9.73;;;;;;;13.70;100.00;101543.63;5074052;28;20071;-64
2022/09/05 02:29:42;;;;;;;10.35;9.85;;;;;;;13.72;100.00;101536.28;5072516;28;20020;-65
2022/09/05 02:32:30;;;;;;;10.00;9.52;;;;;;;13.67;100.00;101544.81;5077737;28;20029;-64
2022/09/05 02:35:29;;;;;;;10.15;9.65;;;;;;;13.68;100.00;101548.31;5075559;28;20036;-64
2022/09/05 02:37:57;;;;;;;9.77;9.38;;;;;;;13.63;100.00;101543.47;5092409;28;20035;-64
2022/09/05 02:40:47;;;;;;;10.55;10.05;;;;;;;13.72;100.00;101541.59;5088091;28;20154;-65
2022/09/05 02:43:23;;;;;;;9.88;9.40;;;;;;;13.86;100.00;101535.56;5052872;28;20025;-64
2022/09/05 02:45:48;;;;;;;9.95;9.45;;;;;;;13.80;100.00;101545.06;5081535;28;20484;-63
2022/09/05 02:48:28;;;;;;;10.38;9.88;;;;;;;13.64;100.00;101538.97;5075663;28;20044;-64
2022/09/05 02:51:07;;;;;;;9.70;9.30;;;;;;;13.66;100.00;101543.16;5071864;28;20020;-64
2022/09/05 02:53:37;;;;;;;9.82;9.40;;;;;;;13.61;100.00;101549.97;5063829;28;20396;-64
2022/09/05 02:56:02;;;;;;;9.98;9.50;;;;;;;13.53;100.00;101543.66;5071017;28;20032;-64
2022/09/05 02:58:46;;;;;;;10.10;9.60;;;;;;;13.58;100.00;101545.78;5074743;28;20024;-64
2022/09/05 03:01:20;;;;;;;9.85;9.45;;;;;;;13.61;100.00;101544.66;5070494;28;20157;-64
2022/09/05 03:03:50;;;;;;;9.95;9.48;;;;;;;13.46;100.00;101552.50;5075665;28;20043;-64
2022/09/05 03:06:27;;;;;;;9.65;9.25;;;;;;;13.49;100.00;101541.50;5071272;28;20036;-64
2022/09/05 03:09:02;;;;;;;9.43;9.02;;;;;;;13.50;100.00;101545.81;5075168;28;20028;-64
2022/09/05 03:11:49;;;;;;;10.10;9.60;;;;;;;13.54;100.00;101547.16;5071037;28;20020;-65
2022/09/05 03:14:20;;;;;;;9.98;9.48;;;;;;;13.50;100.00;101554.63;5086527;28;20028;-64
2022/09/05 03:17:04;;;;;;;10.13;9.63;;;;;;;13.41;100.00;101558.31;5079594;28;20056;-64
2022/09/05 03:19:44;;;;;;;9.57;9.17;;;;;;;13.59;100.00;101559.97;5073892;28;20020;-63
2022/09/05 03:22:21;;;;;;;9.68;9.27;;;;;;;13.45;100.00;101562.34;5083776;28;20024;-64
2022/09/05 03:25:20;;;;;;;10.00;9.50;;;;;;;13.53;100.00;101562.31;5071027;28;20084;-63
2022/09/05 03:28:04;;;;;;;9.80;9.40;;;;;;;13.55;100.00;101556.81;5061259;28;20396;-64
2022/09/05 03:31:00;;;;;;;9.95;9.45;;;;;;;13.50;100.00;101564.47;5086956;28;20401;-64
2022/09/05 03:33:59;;;;;;;10.38;9.88;;;;;;;13.51;100.00;101566.13;5074203;28;20034;-62
2022/09/05 03:37:02;;;;;;;10.20;9.70;;;;;;;13.39;100.00;101560.34;5091095;28;20034;-64
2022/09/05 03:39:45;;;;;;;9.75;9.32;;;;;;;13.52;100.00;101567.81;5071228;28;20024;-64
2022/09/05 03:42:14;;;;;;;9.82;9.35;;;;;;;13.68;100.00;101558.97;5070522;28;20484;-64
2022/09/05 03:44:47;;;;;;;9.60;9.20;;;;;;;14.22;100.00;101554.63;5089079;28;20488;-64
2022/09/05 03:47:24;;;;;;;9.45;9.05;;;;;;;14.26;100.00;101561.28;5077537;28;20124;-63
2022/09/05 03:50:17;;;;;;;10.05;9.55;;;;;;;14.22;100.00;101559.13;5076091;28;20040;-64
2022/09/05 03:53:11;;;;;;;9.80;9.40;;;;;;;14.42;100.00;101557.69;5063352;28;20162;-65
2022/09/05 03:56:11;;;;;;;10.02;9.52;;;;;;;14.05;100.00;101551.19;5072176;28;20020;-66
2022/09/05 03:58:54;;;;;;;10.00;9.50;;;;;;;14.14;100.00;101561.81;5064277;28;20518;-64
2022/09/05 04:01:34;;;;;;;9.80;9.40;;;;;;;14.12;100.00;101561.19;5081185;28;20031;-64
2022/09/05 04:04:06;;;;;;;9.73;9.32;;;;;;;14.44;100.00;101563.69;5076607;28;20024;-64
2022/09/05 04:06:34;;;;;;;10.18;9.68;;;;;;;14.28;100.00;101569.09;5075207;28;20024;-65
2022/09/05 04:09:02;;;;;;;10.05;9.55;;;;;;;14.28;100.00;101571.78;5087979;28;20020;-64
2022/09/05 04:11:43;;;;;;;10.40;9.90;;;;;;;14.13;100.00;101568.19;5094937;28;20046;-64
2022/09/05 04:14:20;;;;;;;9.82;9.40;;;;;;;14.09;100.00;101571.16;5074812;28;20525;-64
2022/09/05 04:16:50;;;;;;;9.80;9.40;;;;;;;14.34;100.00;101579.94;5071128;28;20085;-64
2022/09/05 04:19:33;;;;;;;9.60;9.20;;;;;;;14.10;100.00;101585.34;5060890;28;20056;-64
2022/09/05 04:22:16;;;;;;;9.73;9.32;;;;;;;14.14;100.00;101597.34;5074961;28;20024;-64
2022/09/05 04:24:48;;;;;;;10.10;9.60;;;;;;;14.06;100.00;101597.38;5060175;28;20027;-63
2022/09/05 04:27:16;;;;;;;10.18;9.68;;;;;;;14.36;100.00;101593.09;5074585;28;20028;-64
2022/09/05 04:29:59;;;;;;;10.23;9.73;;;;;;;14.29;100.00;101597.47;5085034;28;20383;-64
2022/09/05 04:32:32;;;;;;;10.27;9.77;;;;;;;14.26;100.00;101601.31;5072728;28;20064;-65
2022/09/05 04:35:21;;;;;;;9.63;9.23;;;;;;;14.03;100.00;101608.41;5093606;28;20020;-64
2022/09/05 04:38:11;;;;;;;10.20;9.70;;;;;;;14.15;100.00;101611.53;5092897;28;20038;-63
2022/09/05 04:40:46;;;;;;;10.50;10.00;;;;;;;14.05;100.00;101604.56;5073368;28;20499;-65
2022/09/05 04:43:17;;;;;;;10.50;10.00;;;;;;;14.18;100.00;101611.19;5076021;28;20161;-64
2022/09/05 04:45:54;;;;;;;10.13;9.63;;;;;;;14.18;100.00;101617.38;5087073;28;20379;-64
2022/09/05 04:48:51;;;;;;;10.60;10.10;;;;;;;14.23;100.00;101614.16;5077202;28;20503;-63
2022/09/05 04:51:46;;;;;;;10.20;9.70;;;;;;;14.29;100.00;101614.31;5066366;28;20376;-63
2022/09/05 04:54:20;;;;;;;10.60;10.10;;;;;;;14.69;100.00;101617.00;5072857;28;20021;-64
2022/09/05 04:56:50;;;;;;;9.80;9.32;;;;;;;14.82;100.00;101609.25;5075055;28;20423;-63
2022/09/05 04:59:22;;;;;;;9.65;9.25;;;;;;;14.86;100.00;101614.06;5081058;28;20027;-63
2022/09/05 05:02:13;;;;;;;10.00;9.50;;;;;;;15.10;100.00;101615.75;5073121;28;20087;-63
2022/09/05 05:04:39;;;;;;;10.38;9.88;;;;;;;15.37;100.00;101624.25;5066064;28;20036;-62
2022/09/05 05:07:25;;;;;;;10.80;10.30;;;;;;;15.67;100.00;101619.84;5089773;28;20696;-63
2022/09/05 05:09:59;;;;;;;10.13;9.63;;;;;;;15.59;100.00;101626.06;5092703;28;20047;-63
2022/09/05 05:12:45;;;;;;;10.77;10.27;;;;;;;15.54;100.00;101628.44;5079485;28;20074;-63
2022/09/05 05:15:16;;;;;;;10.40;9.90;;;;;;;15.19;100.00;101632.56;5091795;28;20090;-64
2022/09/05 05:18:08;;;;;;;10.68;10.18;;;;;;;15.35;100.00;101632.47;5068917;28;20032;-63
2022/09/05 05:21:03;;;;;;;11.27;10.70;;;;;;;15.46;100.00;101631.19;5041387;28;20047;-63
2022/09/05 05:23:37;;;;;;;10.23;9.73;;;;;;;15.57;100.00;101638.81;5073334;28;20093;-64
2022/09/05 05:26:07;;;;;;;10.52;10.02;;;;;;;15.43;100.00;101631.56;5077203;28;20024;-64
2022/09/05 05:29:11;;;;;;;10.10;9.60;;;;;;;15.53;100.00;101637.47;5081783;28;20043;-64
2022/09/05 05:31:45;;;;;;;10.45;9.95;;;;;;;15.56;100.00;101633.59;5071769;28;20162;-65
2022/09/05 05:34:20;;;;;;;10.30;9.80;;;;;;;15.41;100.00;101644.25;5093217;28;20094;-62
2022/09/05 05:36:54;;;;;;;10.70;10.20;;;;;;;15.50;100.00;101640.53;5087287;28;20143;-63
2022/09/05 05:39:24;;;;;;;10.07;9.57;;;;;;;15.65;100.00;101645.94;5073677;28;20078;-65
2022/09/05 05:42:01;;;;;;;9.70;9.30;;;;;;;15.42;100.00;101646.78;5076019;28;20113;-63
2022/09/05 05:44:31;;;;;;;10.77;10.27;;;;;;;15.54;100.00;101649.84;5064023;28;20035;-64
2022/09/05 05:47:05;;;;;;;10.30;9.80;;;;;;;15.58;100.00;101642.31;5077553;28;20415;-65
2022/09/05 05:49:58;;;;;;;10.45;9.95;;;;;;;15.91;100.00;101649.03;5071571;28;20069;-64
2022/09/05 05:53:02;;;;;;;10.82;10.32;;;;;;;15.66;100.00;101643.09;5046769;28;20504;-64
2022/09/05 05:55:45;;;;;;;10.68;10.18;;;;;;;15.85;100.00;101649.75;4997481;28;20042;-64
2022/09/05 05:58:14;;;;;;;9.77;9.37;;;;;;;15.97;100.00;101650.97;5049880;28;20029;-64
2022/09/05 06:01:01;;;;;;;10.23;9.73;;;;;;;16.06;100.00;101654.41;5052945;28;20276;-63
2022/09/05 06:03:41;;;;;;;10.10;9.60;;;;;;;16.03;100.00;101652.09;5052682;28;20017;-64
2022/09/05 06:06:12;;;;;;;10.10;9.60;;;;;;;16.09;100.00;101650.56;5062682;28;20020;-64
2022/09/05 06:08:46;;;;;;;9.70;9.30;;;;;;;16.30;100.00;101656.84;5052618;28;20511;-64
2022/09/05 06:11:49;;;;;;;9.63;9.23;;;;;;;16.16;100.00;101667.53;5072091;28;20032;-63
2022/09/05 06:14:15;;;;;;;10.10;9.60;;;;;;;16.42;100.00;101662.53;5052851;28;20057;-65
2022/09/05 06:16:58;;;;;;;10.20;9.70;;;;;;;16.80;100.00;101662.44;5052593;28;20076;-65
2022/09/05 06:19:27;;;;;;;10.30;9.80;;;;;;;16.71;100.00;101669.75;5052731;28;20029;-65
2022/09/05 06:22:14;;;;;;;10.10;9.60;;;;;;;16.79;100.00;101666.97;5052519;28;20016;-65
2022/09/05 06:25:03;;;;;;;9.70;9.30;;;;;;;16.79;100.00;101677.69;5072022;28;20046;-65
2022/09/05 06:27:56;;;;;;;10.07;9.57;;;;;;;16.78;100.00;101678.72;5052545;28;20040;-65
2022/09/05 06:30:22;;;;;;;10.68;10.18;;;;;;;17.46;100.00;101686.47;5057375;28;20039;-64
2022/09/05 06:33:13;;;;;;;9.80;9.40;;;;;;;17.44;100.00;101689.34;5036309;28;20017;-65
2022/09/05 06:35:47;;;;;;;10.52;10.02;;;;;;;18.10;100.00;101681.88;5051778;28;20029;-64
2022/09/05 06:38:22;;;;;;;10.40;9.90;;;;;;;18.27;100.00;101686.94;5051978;28;20021;-64
2022/09/05 06:41:19;;;;;;;9.88;9.48;;;;;;;18.57;100.00;101690.19;5055181;28;20029;-64
2022/09/05 06:44:32;;;;;;;10.32;9.82;;;;;;;19.12;100.00;101691.09;5068806;28;20738;-65
2022/09/05 06:47:03;;;;;;;10.20;9.70;;;;;;;20.07;100.00;101698.88;5046547;28;20041;-64
2022/09/05 06:49:53;;;;;;;10.30;9.80;;;;;;;20.53;100.00;101695.28;5068621;28;20017;-66
2022/09/05 06:52:21;;;;;;;10.50;10.00;;;;;;;20.06;100.00;101697.22;5067786;28;20017;-65
2022/09/05 06:55:20;;;;;;;10.57;10.07;;;;;;;21.47;100.00;101700.03;5068955;28;20036;-65
2022/09/05 06:58:01;;;;;;;9.93;9.52;;;;;;;22.14;100.00;101705.75;5068435;28;20484;-64
2022/09/05 07:00:37;;;;;;;10.10;9.70;;;;;;;20.80;100.00;101692.50;5067481;28;20104;-64
2022/09/05 07:03:29;;;;;;;10.43;9.93;;;;;;;20.72;100.00;101700.84;5064957;28;20128;-65
2022/09/05 07:06:01;;;;;;;10.07;9.68;;;;;;;23.07;100.00;101699.31;5065957;28;20411;-64
2022/09/05 07:08:50;;;;;;;10.40;9.90;;;;;;;23.90;100.00;101696.59;5069762;28;20020;-65
2022/09/05 07:11:23;;;;;;;10.38;9.88;;;;;;;23.96;98.59;101692.94;5068030;28;20021;-65
2022/09/05 07:14:22;;;;;;;9.98;9.57;;;;;;;24.21;95.60;101708.97;5068476;28;20033;-65
2022/09/05 07:17:14;;;;;;;10.10;9.70;;;;;;;24.77;91.20;101704.78;5068517;28;20025;-65
2022/09/05 07:19:52;;;;;;;10.50;10.00;;;;;;;24.98;87.99;101699.78;5052882;28;20129;-64
2022/09/05 07:22:32;;;;;;;10.80;10.30;;;;;;;25.27;85.78;101703.34;5056797;28;20080;-64
2022/09/05 07:25:07;;;;;;;10.10;9.70;;;;;;;26.00;82.93;101699.69;5068168;28;20119;-65
2022/09/05 07:27:34;;;;;;;;;;;;;;;24.61;86.47;101704.72;5068629;28;20025;-64
2022/09/05 07:30:01;;;;;;;9.70;9.30;;;;;;;24.70;87.45;101706.00;5068240;28;19908;-64
2022/09/05 07:32:30;;;;;;;9.95;9.55;;;;;;;26.77;72.07;101698.03;5067920;28;20017;-64
2022/09/05 07:34:59;;;;;;;10.10;9.70;;;;;;;27.75;67.83;101702.31;5067899;28;20021;-65
2022/09/05 07:37:34;;;;;;;10.23;9.82;;;;;;;29.62;56.88;101702.56;5049519;28;20385;-64
2022/09/05 07:40:08;;;;;;;10.15;9.75;;;;;;;30.10;52.19;101701.16;5063223;28;20021;-65
2022/09/05 07:43:06;;;;;;;9.73;9.32;;;;;;;28.66;54.15;101700.44;5067432;28;20591;-65
2022/09/05 07:45:36;;;;;;;9.98;9.57;;;;;;;29.49;50.72;101698.44;5063827;28;20125;-64
2022/09/05 07:48:05;;;;;;;10.23;9.82;;;;;;;28.10;52.82;101695.47;5067287;28;20017;-65
2022/09/05 07:50:35;;;;;;;10.27;9.88;;;;;;;31.07;47.13;101701.63;5056779;28;20029;-64
2022/09/05 07:53:05;;;;;;;10.23;9.82;;;;;;;31.45;41.79;101695.63;5066722;28;20025;-65
2022/09/05 07:55:38;;;;;;;10.57;10.07;;;;;;;32.35;40.84;101686.81;5052348;28;20055;-65
2022/09/05 07:58:07;;;;;;;10.13;9.73;;;;;;;32.41;41.42;101696.63;5054123;28;20044;-65
2022/09/05 08:00:34;;;;;;;10.25;9.85;;;;;;;33.22;39.02;101687.28;5053934;28;20021;-65
2022/09/05 08:03:11;;;;;;;9.98;9.57;;;;;;;32.05;39.30;101687.94;5054249;28;20397;-65
2022/09/05 08:05:45;;;;;;;9.95;9.55;;;;;;;30.03;41.61;101689.66;5053730;28;20029;-65
2022/09/05 08:08:26;;;;;;;9.93;9.52;;;;;;;30.72;43.47;101691.69;5054033;28;20408;-64
2022/09/05 08:10:56;;;;;;;9.93;9.52;;;;;;;30.58;40.78;101689.78;5053328;28;20052;-64
2022/09/05 08:14:10;;;;;;;9.73;9.32;;;;;;;30.63;42.26;101681.53;5053974;28;20032;-64
2022/09/05 08:16:38;;;;;;;10.10;9.70;;;;;;;31.77;38.70;101684.09;5048814;28;20056;-65
2022/09/05 08:19:12;;;;;;;10.10;9.70;;;;;;;30.11;40.76;101682.81;5053281;28;20037;-65
2022/09/05 08:21:41;;;;;;;10.50;10.00;;;;;;;27.85;44.65;101679.75;5053609;28;20132;-65
2022/09/05 08:24:25;;;;;;;9.75;9.35;;;;;;;29.07;43.76;101679.53;5053540;28;20079;-65
2022/09/05 08:27:09;;;;;;;;;;;;;;;28.62;46.44;101681.81;5054181;28;20112;-64
2022/09/05 08:29:42;;;;;;;10.57;10.07;;;;;;;28.00;46.08;101671.69;5053046;28;20001;-65
2022/09/05 08:32:14;;;;;;;10.73;10.23;;;;;;;29.10;45.70;101670.81;5054038;28;20427;-64
2022/09/05 08:34:50;;;;;;;10.50;10.00;;;;;;;28.87;44.86;101663.91;5053417;28;20029;-66
2022/09/05 08:37:21;;;;;;;10.40;9.90;;;;;;;27.75;48.21;101661.41;5053486;28;20052;-66
2022/09/05 08:39:51;;;;;;;10.20;9.80;;;;;;;27.47;45.59;101656.25;5053714;28;20024;-65
2022/09/05 08:42:47;;;;;;;10.15;9.75;;;;;;;28.58;41.56;101658.91;5053240;28;20508;-65
2022/09/05 08:45:33;;;;;;;10.00;9.60;;;;;;;28.97;38.44;101649.47;5051173;28;20036;-64
2022/09/05 08:48:01;;;;;;;11.18;10.68;;;;;;;29.04;37.49;101648.09;5053299;28;20025;-64
2022/09/05 08:50:37;;;;;;;10.48;9.98;;;;;;;26.76;43.27;101641.94;5052888;28;20035;-66
2022/09/05 08:53:31;;;;;;;10.13;9.73;;;;;;;27.43;42.06;101636.88;5052949;28;20037;-65
2022/09/05 08:56:28;;;;;;;9.73;9.32;;;;;;;27.05;41.39;101643.34;5052676;28;20476;-66
2022/09/05 08:58:59;;;;;;;10.45;9.95;;;;;;;26.26;41.13;101651.09;5022197;28;20072;-64
2022/09/05 09:01:33;;;;;;;10.80;10.30;;;;;;;26.12;41.03;101651.44;5051965;28;20029;-65
2022/09/05 09:04:02;;;;;;;10.40;9.90;;;;;;;25.30;41.11;101640.38;5036715;28;20126;-65
2022/09/05 09:06:48;;;;;;;10.68;10.18;;;;;;;23.07;45.80;101642.47;5044544;28;20024;-64
2022/09/05 09:09:25;;;;;;;10.00;9.60;;;;;;;22.56;50.75;101646.47;5052841;28;20062;-64
2022/09/05 09:11:56;;;;;;;10.10;9.70;;;;;;;24.72;42.98;101646.88;5052862;28;20091;-64
2022/09/05 09:14:36;;;;;;;10.10;9.70;;;;;;;24.92;39.46;101639.13;5052951;28;20025;-65
2022/09/05 09:17:25;;;;;;;9.80;9.40;;;;;;;24.77;35.80;101636.13;5052886;28;20074;-65
2022/09/05 09:20:03;;;;;;;9.88;9.48;;;;;;;25.65;35.31;101642.03;5051813;28;20029;-65
2022/09/05 09:22:49;;;;;;;10.13;9.73;;;;;;;26.37;33.03;101640.09;5052920;28;20113;-64
2022/09/05 09:25:23;;;;;;;10.52;10.02;;;;;;;26.58;33.71;101634.91;5052740;28;20100;-65
2022/09/05 09:28:04;;;;;;;10.40;9.90;;;;;;;26.69;32.35;101626.63;5053118;28;20383;-65
2022/09/05 09:30:32;;;;;;;10.02;9.63;;;;;;;26.80;32.77;101624.00;5053007;28;20037;-64
2022/09/05 09:33:05;;;;;;;10.88;10.38;;;;;;;27.30;32.06;101622.88;5052676;28;20017;-64
2022/09/05 09:35:46;;;;;;;10.10;9.70;;;;;;;26.65;32.18;101622.75;5051431;28;20043;-64
2022/09/05 09:38:15;;;;;;;10.63;10.13;;;;;;;27.73;32.02;101628.13;5045446;28;20095;-64
2022/09/05 09:40:49;;;;;;;10.10;9.70;;;;;;;28.24;31.20;101622.16;5052801;28;20075;-64
2022/09/05 09:43:57;;;;;;;10.40;9.90;;;;;;;27.22;31.03;101619.53;5049359;28;20101;-64
2022/09/05 09:46:26;;;;;;;10.55;10.05;;;;;;;27.60;30.95;101622.28;5033380;28;20120;-65
2022/09/05 09:49:09;;;;;;;11.13;10.63;;;;;;;27.33;31.62;101627.81;5051920;28;20480;-64
2022/09/05 09:51:41;;;;;;;10.15;9.75;;;;;;;27.20;32.03;101624.44;5052492;28;20465;-64
2022/09/05 09:54:15;;;;;;;10.30;9.80;;;;;;;27.07;31.74;101616.69;5051908;28;20032;-62
2022/09/05 09:56:56;;;;;;;10.60;10.10;;;;;;;27.12;31.71;101610.47;5053194;28;20033;-65
2022/09/05 09:59:36;;;;;;;10.82;10.32;;;;;;;26.87;31.38;101613.72;5050960;28;20061;-64
2022/09/05 10:02:35;;;;;;;11.02;10.52;;;;;;;23.71;36.00;101613.75;5050556;28;20064;-65
2022/09/05 10:05:12;;;;;;;10.55;10.05;;;;;;;24.39;34.81;101612.31;5051845;28;20096;-64
2022/09/05 10:07:52;;;;;;;10.45;9.95;;;;;;;25.67;33.82;101615.41;5051547;28;20033;-64
2022/09/05 10:10:34;;;;;;;10.55;10.05;;;;;;;24.23;35.28;101605.69;5050562;28;20032;-64
2022/09/05 10:13:37;;;;;;;10.57;10.07;;;;;;;23.96;35.81;101606.22;5051670;28;20400;-64
2022/09/05 10:16:15;;;;;;;10.50;10.00;;;;;;;23.58;36.63;101603.16;5051288;28;20108;-64
2022/09/05 10:18:47;;;;;;;10.07;9.68;;;;;;;22.68;37.15;101590.53;5039941;28;20029;-63
2022/09/05 10:21:34;;;;;;;10.50;10.00;;;;;;;24.92;34.82;101587.53;5051664;28;20024;-64
2022/09/05 10:24:17;;;;;;;10.50;10.00;;;;;;;24.56;35.57;101586.06;5051961;28;20040;-64
2022/09/05 10:27:08;;;;;;;10.00;9.60;;;;;;;25.12;35.13;101581.69;5050849;28;20121;-65
2022/09/05 10:29:56;;;;;;;10.10;9.70;;;;;;;25.31;34.05;101580.34;5052142;28;20024;-65
2022/09/05 10:32:24;;;;;;;10.05;9.65;;;;;;;25.10;35.21;101585.69;5052260;28;20106;-65
2022/09/05 10:35:00;;;;;;;9.90;9.50;;;;;;;24.47;35.57;101588.34;5051903;28;20031;-64
2022/09/05 10:37:40;;;;;;;10.45;9.95;;;;;;;24.25;35.71;101592.72;5046276;28;20034;-64
2022/09/05 10:40:10;;;;;;;10.00;9.60;;;;;;;24.43;35.41;101592.59;5040171;28;20021;-64
2022/09/05 10:42:42;;;;;;;9.77;9.38;;;;;;;24.98;34.30;101586.56;5051231;28;20412;-64
2022/09/05 10:45:44;;;;;;;10.60;10.10;;;;;;;23.77;34.71;101593.84;5050709;28;20061;-64
2022/09/05 10:48:27;;;;;;;9.80;9.40;;;;;;;24.43;35.14;101584.44;5050348;28;20045;-65
2022/09/05 10:51:15;;;;;;;9.82;9.43;;;;;;;25.22;33.84;101581.84;5051922;28;20040;-64
2022/09/05 10:54:02;;;;;;;10.10;9.70;;;;;;;25.20;33.82;101584.00;5051608;28;20496;-64
2022/09/05 10:56:36;;;;;;;10.05;9.65;;;;;;;25.01;34.33;101572.50;5051445;28;20111;-65
2022/09/05 10:59:03;;;;;;;9.83;9.43;;;;;;;25.38;33.93;101577.47;5038789;28;20388;-65
2022/09/05 11:01:34;;;;;;;9.75;9.35;;;;;;;25.57;34.45;101578.88;5051095;28;20270;-65
2022/09/05 11:04:34;;;;;;;9.98;9.57;;;;;;;25.01;34.80;101577.09;5046755;28;20485;-63
2022/09/05 11:07:11;;;;;;;9.98;9.57;;;;;;;25.02;34.79;101574.13;5051514;28;20033;-64
2022/09/05 11:09:58;;;;;;;9.80;9.40;;;;;;;25.49;34.57;101579.28;5051281;28;20079;-64
2022/09/05 11:12:30;;;;;;;10.30;9.80;;;;;;;24.78;34.59;101569.91;5051306;28;20548;-65
2022/09/05 11:15:00;;;;;;;10.00;9.60;;;;;;;24.40;34.17;101573.28;5051693;28;20054;-64
2022/09/05 11:17:35;;;;;;;10.00;9.60;;;;;;;25.04;33.91;101572.03;5051552;28;20319;-63
2022/09/05 11:20:33;;;;;;;9.65;9.25;;;;;;;23.94;35.39;101564.97;5050272;28;20025;-65
2022/09/05 11:23:27;;;;;;;9.77;9.38;;;;;;;25.00;33.84;101556.47;5032006;28;20045;-64
2022/09/05 11:25:59;;;;;;;9.93;9.53;;;;;;;25.04;33.88;101557.63;5051469;28;20388;-64
2022/09/05 11:28:53;;;;;;;10.10;9.70;;;;;;;24.18;34.70;101545.94;5051488;28;20021;-65
2022/09/05 11:31:26;;;;;;;10.07;9.68;;;;;;;24.63;35.59;101550.66;5053819;28;20438;-64
2022/09/05 11:34:11;;;;;;;9.65;9.25;;;;;;;24.09;36.85;101550.94;5049568;28;20018;-64
2022/09/05 11:36:47;;;;;;;9.73;9.32;;;;;;;24.29;35.82;101547.78;5057479;28;20369;-64
2022/09/05 11:39:22;;;;;;;9.80;9.40;;;;;;;24.85;35.51;101542.63;5054678;28;20123;-65
2022/09/05 11:42:23;;;;;;;9.60;9.20;;;;;;;25.05;34.91;101543.00;5042490;28;20100;-63
2022/09/05 11:45:07;;;;;;;10.48;9.98;;;;;;;24.63;34.77;101539.78;5042456;28;20048;-64
2022/09/05 11:47:58;;;;;;;9.88;9.48;;;;;;;24.44;35.91;101539.97;5054539;28;20017;-64
2022/09/05 11:50:29;;;;;;;10.20;9.77;;;;;;;24.23;36.32;101537.91;5054573;28;20655;-65
2022/09/05 11:52:56;;;;;;;9.63;9.23;;;;;;;24.58;36.21;101540.50;5053650;28;20112;-65
2022/09/05 11:55:36;;;;;;;9.80;9.40;;;;;;;24.75;35.23;101538.66;5053344;28;20029;-64
2022/09/05 11:58:24;;;;;;;9.90;9.50;;;;;;;24.52;34.29;101526.03;5047381;28;20095;-64
2022/09/05 12:01:08;;;;;;;10.10;9.70;;;;;;;24.94;33.95;101527.56;5054553;28;20071;-64
2022/09/05 12:03:51;;;;;;;10.07;9.67;;;;;;;24.88;33.10;101529.38;5052972;28;20116;-64
2022/09/05 12:06:38;;;;;;;9.60;9.20;;;;;;;25.08;34.07;101529.75;5054324;28;20345;-64
2022/09/05 12:09:04;;;;;;;9.70;9.30;;;;;;;25.21;34.92;101530.50;5053640;28;20048;-65
2022/09/05 12:11:48;;;;;;;9.70;9.30;;;;;;;24.67;34.32;101520.06;5054180;28;20033;-65
2022/09/05 12:14:36;;;;;;;9.98;9.57;;;;;;;24.20;34.70;101522.13;5054554;28;20094;-65
2022/09/05 12:17:22;;;;;;;10.32;9.82;;;;;;;24.03;34.72;101524.78;5053925;28;20044;-65